Leah, Georgia
Current Conditions -  °F | °C
As of 4:35 PM on Friday 28 Nov 2014 (Local Time) from KHQU Reporting Station
Clear Clear  
Wind Chill: 50°   Ceiling: Unl
Heat Index: 50°   Visibility: 10mi
Dew Point: 31°   Wind: 0mph
Humidity: 48%   Direction: NA
Pressure: 30.35"   Gusts: NA
Location:  33.6237°N, 82.2874°W
Report Text: KHQU 282135Z AUTO 00000KT 10SM CLR 10/M01 A3035 RMK AO1 T01001007
Loading
Personal Weather Stations






























Interactive Weather Map New forecast layout! Learn more

10-Day Weather Forecast

Advertisements
Track Severe Weather on mobile